sensor_id;sensor_type;location;lat;lon;timestamp;P1;durP1;ratioP1;P2;durP2;ratioP2
12663;SDS011;6396;58.490;15.528;2023-03-14T00:00:20;1.77;;;0.90;;
12663;SDS011;6396;58.490;15.528;2023-03-14T00:02:52;2.30;;;1.00;;
12663;SDS011;6396;58.490;15.528;2023-03-14T00:05:21;2.57;;;0.90;;
12663;SDS011;6396;58.490;15.528;2023-03-14T00:07:48;2.47;;;1.30;;
12663;SDS011;6396;58.490;15.528;2023-03-14T00:10:16;1.93;;;0.90;;
12663;SDS011;6396;58.490;15.528;2023-03-14T00:12:43;0.93;;;0.90;;
12663;SDS011;6396;58.490;15.528;2023-03-14T00:15:13;1.13;;;0.80;;
12663;SDS011;6396;58.490;15.528;2023-03-14T00:17:42;1.37;;;0.90;;
12663;SDS011;6396;58.490;15.528;2023-03-14T00:20:27;1.23;;;0.73;;
12663;SDS011;6396;58.490;15.528;2023-03-14T00:22:56;1.10;;;0.80;;
12663;SDS011;6396;58.490;15.528;2023-03-14T00:25:28;1.03;;;0.80;;
12663;SDS011;6396;58.490;15.528;2023-03-14T00:27:54;1.23;;;0.77;;
12663;SDS011;6396;58.490;15.528;2023-03-14T00:30:22;0.80;;;0.80;;
12663;SDS011;6396;58.490;15.528;2023-03-14T00:32:50;1.37;;;0.90;;
12663;SDS011;6396;58.490;15.528;2023-03-14T00:35:23;1.40;;;0.80;;
12663;SDS011;6396;58.490;15.528;2023-03-14T00:37:51;1.30;;;0.60;;
12663;SDS011;6396;58.490;15.528;2023-03-14T00:40:18;1.50;;;0.77;;
12663;SDS011;6396;58.490;15.528;2023-03-14T00:42:45;2.27;;;0.93;;
12663;SDS011;6396;58.490;15.528;2023-03-14T00:45:16;2.63;;;0.90;;
12663;SDS011;6396;58.490;15.528;2023-03-14T00:47:43;1.00;;;0.83;;
12663;SDS011;6396;58.490;15.528;2023-03-14T00:50:10;2.20;;;0.80;;
12663;SDS011;6396;58.490;15.528;2023-03-14T00:52:39;0.80;;;0.80;;
12663;SDS011;6396;58.490;15.528;2023-03-14T00:55:06;0.70;;;0.70;;
12663;SDS011;6396;58.490;15.528;2023-03-14T00:57:39;0.80;;;0.80;;
12663;SDS011;6396;58.490;15.528;2023-03-14T01:00:09;2.83;;;1.00;;
12663;SDS011;6396;58.490;15.528;2023-03-14T01:02:39;0.73;;;0.73;;
12663;SDS011;6396;58.490;15.528;2023-03-14T01:05:07;1.00;;;0.90;;
12663;SDS011;6396;58.490;15.528;2023-03-14T01:07:35;2.20;;;0.90;;
12663;SDS011;6396;58.490;15.528;2023-03-14T01:10:04;2.60;;;0.90;;
12663;SDS011;6396;58.490;15.528;2023-03-14T01:12:33;2.90;;;0.80;;
12663;SDS011;6396;58.490;15.528;2023-03-14T01:15:01;1.00;;;0.70;;
12663;SDS011;6396;58.490;15.528;2023-03-14T01:17:28;1.27;;;0.70;;
12663;SDS011;6396;58.490;15.528;2023-03-14T01:19:55;2.10;;;0.80;;
12663;SDS011;6396;58.490;15.528;2023-03-14T01:22:22;1.80;;;0.90;;
12663;SDS011;6396;58.490;15.528;2023-03-14T01:24:49;2.73;;;1.27;;
12663;SDS011;6396;58.490;15.528;2023-03-14T01:27:17;2.57;;;0.80;;
12663;SDS011;6396;58.490;15.528;2023-03-14T01:29:46;1.33;;;0.80;;
12663;SDS011;6396;58.490;15.528;2023-03-14T01:32:13;2.10;;;0.93;;
12663;SDS011;6396;58.490;15.528;2023-03-14T01:34:40;1.20;;;0.80;;
12663;SDS011;6396;58.490;15.528;2023-03-14T01:37:09;2.80;;;0.90;;
12663;SDS011;6396;58.490;15.528;2023-03-14T01:39:37;1.50;;;0.80;;
12663;SDS011;6396;58.490;15.528;2023-03-14T01:42:03;1.47;;;0.80;;
12663;SDS011;6396;58.490;15.528;2023-03-14T01:47:15;0.70;;;0.70;;
12663;SDS011;6396;58.490;15.528;2023-03-14T01:49:41;1.97;;;0.87;;
12663;SDS011;6396;58.490;15.528;2023-03-14T01:52:11;1.10;;;0.97;;
12663;SDS011;6396;58.490;15.528;2023-03-14T01:54:42;3.03;;;1.67;;
12663;SDS011;6396;58.490;15.528;2023-03-14T01:57:11;3.13;;;0.90;;
12663;SDS011;6396;58.490;15.528;2023-03-14T01:59:43;2.17;;;1.20;;
12663;SDS011;6396;58.490;15.528;2023-03-14T02:02:15;1.73;;;0.90;;
12663;SDS011;6396;58.490;15.528;2023-03-14T02:04:43;1.90;;;1.17;;
12663;SDS011;6396;58.490;15.528;2023-03-14T02:07:12;0.90;;;0.80;;
12663;SDS011;6396;58.490;15.528;2023-03-14T02:09:42;1.57;;;0.80;;
12663;SDS011;6396;58.490;15.528;2023-03-14T02:12:11;2.03;;;0.90;;
12663;SDS011;6396;58.490;15.528;2023-03-14T02:14:41;2.13;;;0.83;;
12663;SDS011;6396;58.490;15.528;2023-03-14T02:17:13;0.67;;;0.67;;
12663;SDS011;6396;58.490;15.528;2023-03-14T02:19:51;0.73;;;0.70;;
12663;SDS011;6396;58.490;15.528;2023-03-14T02:22:30;1.77;;;0.83;;
12663;SDS011;6396;58.490;15.528;2023-03-14T02:24:59;1.63;;;1.03;;
12663;SDS011;6396;58.490;15.528;2023-03-14T02:27:35;0.60;;;0.60;;
12663;SDS011;6396;58.490;15.528;2023-03-14T02:30:04;1.13;;;0.90;;
12663;SDS011;6396;58.490;15.528;2023-03-14T02:32:34;0.70;;;0.70;;
12663;SDS011;6396;58.490;15.528;2023-03-14T02:35:05;0.73;;;0.73;;
12663;SDS011;6396;58.490;15.528;2023-03-14T02:37:36;2.30;;;0.80;;
12663;SDS011;6396;58.490;15.528;2023-03-14T02:40:08;0.70;;;0.70;;
12663;SDS011;6396;58.490;15.528;2023-03-14T02:42:37;0.97;;;0.87;;
12663;SDS011;6396;58.490;15.528;2023-03-14T02:45:27;1.00;;;0.60;;
12663;SDS011;6396;58.490;15.528;2023-03-14T02:48:01;0.93;;;0.70;;
12663;SDS011;6396;58.490;15.528;2023-03-14T02:50:31;1.03;;;0.80;;
12663;SDS011;6396;58.490;15.528;2023-03-14T02:53:00;0.67;;;0.67;;
12663;SDS011;6396;58.490;15.528;2023-03-14T02:55:27;0.70;;;0.70;;
12663;SDS011;6396;58.490;15.528;2023-03-14T02:57:55;0.67;;;0.67;;
12663;SDS011;6396;58.490;15.528;2023-03-14T03:00:22;1.20;;;0.80;;
12663;SDS011;6396;58.490;15.528;2023-03-14T03:02:49;1.00;;;1.00;;
12663;SDS011;6396;58.490;15.528;2023-03-14T03:05:16;0.93;;;0.70;;
12663;SDS011;6396;58.490;15.528;2023-03-14T03:07:42;0.70;;;0.70;;
12663;SDS011;6396;58.490;15.528;2023-03-14T03:10:10;1.33;;;0.60;;
12663;SDS011;6396;58.490;15.528;2023-03-14T03:12:37;0.93;;;0.80;;
12663;SDS011;6396;58.490;15.528;2023-03-14T03:15:06;0.97;;;0.80;;
12663;SDS011;6396;58.490;15.528;2023-03-14T03:17:33;1.60;;;0.87;;
12663;SDS011;6396;58.490;15.528;2023-03-14T03:20:00;1.67;;;0.90;;
12663;SDS011;6396;58.490;15.528;2023-03-14T03:22:28;1.17;;;0.80;;
12663;SDS011;6396;58.490;15.528;2023-03-14T03:24:55;1.53;;;0.80;;
12663;SDS011;6396;58.490;15.528;2023-03-14T03:27:22;1.57;;;1.03;;
12663;SDS011;6396;58.490;15.528;2023-03-14T03:29:49;2.00;;;1.10;;
12663;SDS011;6396;58.490;15.528;2023-03-14T03:32:17;1.00;;;0.90;;
12663;SDS011;6396;58.490;15.528;2023-03-14T03:34:44;0.80;;;0.80;;
12663;SDS011;6396;58.490;15.528;2023-03-14T03:37:11;1.10;;;1.00;;
12663;SDS011;6396;58.490;15.528;2023-03-14T03:39:38;1.43;;;1.10;;
12663;SDS011;6396;58.490;15.528;2023-03-14T03:42:04;1.50;;;1.40;;
12663;SDS011;6396;58.490;15.528;2023-03-14T03:44:31;1.23;;;1.13;;
12663;SDS011;6396;58.490;15.528;2023-03-14T03:46:58;2.17;;;1.10;;
12663;SDS011;6396;58.490;15.528;2023-03-14T03:49:29;1.30;;;1.20;;
12663;SDS011;6396;58.490;15.528;2023-03-14T03:51:56;1.40;;;1.30;;
12663;SDS011;6396;58.490;15.528;2023-03-14T03:54:24;1.87;;;1.30;;
12663;SDS011;6396;58.490;15.528;2023-03-14T03:56:50;1.20;;;1.10;;
12663;SDS011;6396;58.490;15.528;2023-03-14T03:59:18;2.03;;;1.50;;
12663;SDS011;6396;58.490;15.528;2023-03-14T04:01:45;1.80;;;1.27;;
12663;SDS011;6396;58.490;15.528;2023-03-14T04:04:12;1.90;;;1.30;;
12663;SDS011;6396;58.490;15.528;2023-03-14T04:06:42;1.30;;;1.20;;
12663;SDS011;6396;58.490;15.528;2023-03-14T04:09:09;3.30;;;1.30;;
12663;SDS011;6396;58.490;15.528;2023-03-14T04:11:38;1.43;;;1.33;;
12663;SDS011;6396;58.490;15.528;2023-03-14T04:14:06;1.60;;;1.20;;
12663;SDS011;6396;58.490;15.528;2023-03-14T04:16:33;2.40;;;1.40;;
12663;SDS011;6396;58.490;15.528;2023-03-14T04:19:00;1.07;;;1.03;;
12663;SDS011;6396;58.490;15.528;2023-03-14T04:21:27;2.73;;;1.50;;
12663;SDS011;6396;58.490;15.528;2023-03-14T04:23:56;2.13;;;1.30;;
12663;SDS011;6396;58.490;15.528;2023-03-14T04:26:23;1.87;;;1.37;;
12663;SDS011;6396;58.490;15.528;2023-03-14T04:28:50;3.57;;;1.50;;
12663;SDS011;6396;58.490;15.528;2023-03-14T04:31:19;2.40;;;1.50;;
12663;SDS011;6396;58.490;15.528;2023-03-14T04:33:47;3.07;;;1.47;;
12663;SDS011;6396;58.490;15.528;2023-03-14T04:36:14;3.77;;;1.43;;
12663;SDS011;6396;58.490;15.528;2023-03-14T04:38:42;1.80;;;1.40;;
12663;SDS011;6396;58.490;15.528;2023-03-14T04:41:10;3.23;;;1.53;;
12663;SDS011;6396;58.490;15.528;2023-03-14T04:43:37;3.20;;;1.90;;
12663;SDS011;6396;58.490;15.528;2023-03-14T04:46:04;4.80;;;1.90;;
12663;SDS011;6396;58.490;15.528;2023-03-14T04:48:31;4.40;;;2.00;;
12663;SDS011;6396;58.490;15.528;2023-03-14T04:50:58;5.10;;;2.03;;
12663;SDS011;6396;58.490;15.528;2023-03-14T04:53:28;1.93;;;1.57;;
12663;SDS011;6396;58.490;15.528;2023-03-14T04:55:55;4.13;;;2.00;;
12663;SDS011;6396;58.490;15.528;2023-03-14T04:58:23;5.00;;;1.80;;
12663;SDS011;6396;58.490;15.528;2023-03-14T05:00:50;7.90;;;2.30;;
12663;SDS011;6396;58.490;15.528;2023-03-14T05:03:17;3.70;;;1.80;;
12663;SDS011;6396;58.490;15.528;2023-03-14T05:05:45;7.83;;;2.30;;
12663;SDS011;6396;58.490;15.528;2023-03-14T05:08:12;6.63;;;1.87;;
12663;SDS011;6396;58.490;15.528;2023-03-14T05:10:40;6.60;;;2.03;;
12663;SDS011;6396;58.490;15.528;2023-03-14T05:13:08;3.57;;;2.37;;
12663;SDS011;6396;58.490;15.528;2023-03-14T05:15:45;5.13;;;2.30;;
12663;SDS011;6396;58.490;15.528;2023-03-14T05:18:14;7.90;;;2.43;;
12663;SDS011;6396;58.490;15.528;2023-03-14T05:20:49;6.47;;;2.77;;
12663;SDS011;6396;58.490;15.528;2023-03-14T05:23:17;7.63;;;2.47;;
12663;SDS011;6396;58.490;15.528;2023-03-14T05:25:44;5.97;;;2.37;;
12663;SDS011;6396;58.490;15.528;2023-03-14T05:28:12;7.00;;;2.27;;
12663;SDS011;6396;58.490;15.528;2023-03-14T05:30:41;7.27;;;2.43;;
12663;SDS011;6396;58.490;15.528;2023-03-14T05:33:10;5.43;;;2.80;;
12663;SDS011;6396;58.490;15.528;2023-03-14T05:35:38;6.30;;;2.50;;
12663;SDS011;6396;58.490;15.528;2023-03-14T05:38:05;8.03;;;2.60;;
12663;SDS011;6396;58.490;15.528;2023-03-14T05:40:34;11.47;;;3.23;;
12663;SDS011;6396;58.490;15.528;2023-03-14T05:43:01;7.40;;;2.53;;
12663;SDS011;6396;58.490;15.528;2023-03-14T05:45:28;9.47;;;2.60;;
12663;SDS011;6396;58.490;15.528;2023-03-14T05:47:56;8.83;;;2.93;;
12663;SDS011;6396;58.490;15.528;2023-03-14T05:50:23;9.37;;;2.73;;
12663;SDS011;6396;58.490;15.528;2023-03-14T05:52:50;10.63;;;2.57;;
12663;SDS011;6396;58.490;15.528;2023-03-14T05:55:17;8.17;;;3.30;;
12663;SDS011;6396;58.490;15.528;2023-03-14T05:57:44;8.13;;;2.70;;
12663;SDS011;6396;58.490;15.528;2023-03-14T06:00:11;10.77;;;2.97;;
12663;SDS011;6396;58.490;15.528;2023-03-14T06:02:40;7.17;;;2.73;;
12663;SDS011;6396;58.490;15.528;2023-03-14T06:05:39;7.77;;;2.53;;
12663;SDS011;6396;58.490;15.528;2023-03-14T06:08:07;10.83;;;2.73;;
12663;SDS011;6396;58.490;15.528;2023-03-14T06:10:34;6.37;;;2.43;;
12663;SDS011;6396;58.490;15.528;2023-03-14T06:13:11;4.73;;;2.70;;
12663;SDS011;6396;58.490;15.528;2023-03-14T06:15:40;8.57;;;2.87;;
12663;SDS011;6396;58.490;15.528;2023-03-14T06:18:07;9.93;;;3.13;;
12663;SDS011;6396;58.490;15.528;2023-03-14T06:20:49;10.57;;;3.93;;
12663;SDS011;6396;58.490;15.528;2023-03-14T06:23:28;9.60;;;2.70;;
12663;SDS011;6396;58.490;15.528;2023-03-14T06:26:29;5.47;;;2.43;;
12663;SDS011;6396;58.490;15.528;2023-03-14T06:29:22;7.40;;;2.60;;
12663;SDS011;6396;58.490;15.528;2023-03-14T06:31:56;8.07;;;2.60;;
12663;SDS011;6396;58.490;15.528;2023-03-14T06:34:48;7.63;;;2.60;;
12663;SDS011;6396;58.490;15.528;2023-03-14T06:37:32;13.10;;;2.90;;
12663;SDS011;6396;58.490;15.528;2023-03-14T06:39:59;9.67;;;2.77;;
12663;SDS011;6396;58.490;15.528;2023-03-14T06:42:30;7.10;;;2.20;;
12663;SDS011;6396;58.490;15.528;2023-03-14T06:45:06;8.93;;;3.23;;
12663;SDS011;6396;58.490;15.528;2023-03-14T06:47:37;5.47;;;2.63;;
12663;SDS011;6396;58.490;15.528;2023-03-14T06:50:05;7.47;;;2.70;;
12663;SDS011;6396;58.490;15.528;2023-03-14T06:52:34;7.97;;;3.03;;
12663;SDS011;6396;58.490;15.528;2023-03-14T06:55:01;9.00;;;2.60;;
12663;SDS011;6396;58.490;15.528;2023-03-14T06:57:29;7.53;;;2.30;;
12663;SDS011;6396;58.490;15.528;2023-03-14T06:59:59;8.37;;;2.70;;
12663;SDS011;6396;58.490;15.528;2023-03-14T07:02:26;6.27;;;2.50;;
12663;SDS011;6396;58.490;15.528;2023-03-14T07:04:53;7.83;;;2.50;;
12663;SDS011;6396;58.490;15.528;2023-03-14T07:07:24;9.33;;;2.57;;
12663;SDS011;6396;58.490;15.528;2023-03-14T07:09:53;7.30;;;3.33;;
12663;SDS011;6396;58.490;15.528;2023-03-14T07:12:20;6.10;;;2.60;;
12663;SDS011;6396;58.490;15.528;2023-03-14T07:14:47;9.10;;;3.10;;
12663;SDS011;6396;58.490;15.528;2023-03-14T07:17:17;5.27;;;2.37;;
12663;SDS011;6396;58.490;15.528;2023-03-14T07:19:44;3.50;;;2.53;;
12663;SDS011;6396;58.490;15.528;2023-03-14T07:22:12;5.47;;;2.57;;
12663;SDS011;6396;58.490;15.528;2023-03-14T07:24:39;7.03;;;2.53;;
12663;SDS011;6396;58.490;15.528;2023-03-14T07:27:07;6.13;;;2.43;;
12663;SDS011;6396;58.490;15.528;2023-03-14T07:29:37;6.00;;;2.57;;
12663;SDS011;6396;58.490;15.528;2023-03-14T07:32:04;5.00;;;2.43;;
12663;SDS011;6396;58.490;15.528;2023-03-14T07:34:31;7.57;;;2.40;;
12663;SDS011;6396;58.490;15.528;2023-03-14T07:36:58;5.43;;;2.60;;
12663;SDS011;6396;58.490;15.528;2023-03-14T07:39:30;3.27;;;2.17;;
12663;SDS011;6396;58.490;15.528;2023-03-14T07:42:00;3.97;;;2.07;;
12663;SDS011;6396;58.490;15.528;2023-03-14T07:44:31;3.47;;;2.10;;
12663;SDS011;6396;58.490;15.528;2023-03-14T07:46:59;5.53;;;2.10;;
12663;SDS011;6396;58.490;15.528;2023-03-14T07:49:26;5.37;;;2.17;;
12663;SDS011;6396;58.490;15.528;2023-03-14T07:51:53;6.67;;;2.03;;
12663;SDS011;6396;58.490;15.528;2023-03-14T07:54:20;5.73;;;2.27;;
12663;SDS011;6396;58.490;15.528;2023-03-14T07:56:47;3.13;;;2.00;;
12663;SDS011;6396;58.490;15.528;2023-03-14T07:59:15;4.37;;;1.90;;
12663;SDS011;6396;58.490;15.528;2023-03-14T08:01:44;3.30;;;1.60;;
12663;SDS011;6396;58.490;15.528;2023-03-14T08:04:12;4.37;;;1.90;;
12663;SDS011;6396;58.490;15.528;2023-03-14T08:06:40;3.87;;;2.07;;
12663;SDS011;6396;58.490;15.528;2023-03-14T08:09:07;5.07;;;2.00;;
12663;SDS011;6396;58.490;15.528;2023-03-14T08:11:36;4.57;;;1.87;;
12663;SDS011;6396;58.490;15.528;2023-03-14T08:14:03;2.97;;;1.80;;
12663;SDS011;6396;58.490;15.528;2023-03-14T08:16:32;5.13;;;2.07;;
12663;SDS011;6396;58.490;15.528;2023-03-14T08:19:02;3.30;;;2.00;;
12663;SDS011;6396;58.490;15.528;2023-03-14T08:21:30;3.97;;;1.83;;
12663;SDS011;6396;58.490;15.528;2023-03-14T08:24:02;5.10;;;2.10;;
12663;SDS011;6396;58.490;15.528;2023-03-14T08:26:30;5.13;;;2.40;;
12663;SDS011;6396;58.490;15.528;2023-03-14T08:28:58;3.37;;;2.10;;
12663;SDS011;6396;58.490;15.528;2023-03-14T08:31:25;4.40;;;2.00;;
12663;SDS011;6396;58.490;15.528;2023-03-14T08:33:54;3.43;;;1.77;;
12663;SDS011;6396;58.490;15.528;2023-03-14T08:36:22;2.87;;;2.20;;
12663;SDS011;6396;58.490;15.528;2023-03-14T08:38:50;2.23;;;1.80;;
12663;SDS011;6396;58.490;15.528;2023-03-14T08:41:19;2.73;;;1.67;;
12663;SDS011;6396;58.490;15.528;2023-03-14T08:43:48;3.40;;;1.80;;
12663;SDS011;6396;58.490;15.528;2023-03-14T08:46:19;5.80;;;2.10;;
12663;SDS011;6396;58.490;15.528;2023-03-14T08:48:49;4.07;;;2.13;;
12663;SDS011;6396;58.490;15.528;2023-03-14T08:51:33;5.37;;;1.90;;
12663;SDS011;6396;58.490;15.528;2023-03-14T08:54:08;3.97;;;1.77;;
12663;SDS011;6396;58.490;15.528;2023-03-14T08:56:39;5.27;;;2.27;;
12663;SDS011;6396;58.490;15.528;2023-03-14T08:59:09;3.70;;;1.90;;
12663;SDS011;6396;58.490;15.528;2023-03-14T09:01:37;5.43;;;1.93;;
12663;SDS011;6396;58.490;15.528;2023-03-14T09:04:26;3.57;;;2.00;;
12663;SDS011;6396;58.490;15.528;2023-03-14T09:07:09;2.83;;;1.87;;
12663;SDS011;6396;58.490;15.528;2023-03-14T09:09:44;1.80;;;1.50;;
12663;SDS011;6396;58.490;15.528;2023-03-14T09:12:16;2.30;;;1.50;;
12663;SDS011;6396;58.490;15.528;2023-03-14T09:14:50;4.17;;;1.50;;
12663;SDS011;6396;58.490;15.528;2023-03-14T09:17:37;3.87;;;1.43;;
12663;SDS011;6396;58.490;15.528;2023-03-14T09:20:28;4.23;;;1.80;;
12663;SDS011;6396;58.490;15.528;2023-03-14T09:23:05;4.07;;;1.50;;
12663;SDS011;6396;58.490;15.528;2023-03-14T09:25:38;2.63;;;1.40;;
12663;SDS011;6396;58.490;15.528;2023-03-14T09:28:20;2.93;;;1.47;;
12663;SDS011;6396;58.490;15.528;2023-03-14T10:25:37;1.90;;;0.90;;
12663;SDS011;6396;58.490;15.528;2023-03-14T10:28:28;2.27;;;1.00;;
12663;SDS011;6396;58.490;15.528;2023-03-14T10:31:06;1.63;;;0.90;;
12663;SDS011;6396;58.490;15.528;2023-03-14T10:33:58;1.10;;;0.90;;
12663;SDS011;6396;58.490;15.528;2023-03-14T10:36:44;2.50;;;1.00;;
12663;SDS011;6396;58.490;15.528;2023-03-14T10:39:42;2.10;;;1.00;;
12663;SDS011;6396;58.490;15.528;2023-03-14T10:42:39;1.80;;;1.30;;
12663;SDS011;6396;58.490;15.528;2023-03-14T11:41:08;0.77;;;0.77;;
12663;SDS011;6396;58.490;15.528;2023-03-14T11:44:37;0.90;;;0.80;;
12663;SDS011;6396;58.490;15.528;2023-03-14T11:47:15;0.70;;;0.70;;
12663;SDS011;6396;58.490;15.528;2023-03-14T12:14:38;1.43;;;0.80;;
12663;SDS011;6396;58.490;15.528;2023-03-14T12:17:33;0.70;;;0.70;;
12663;SDS011;6396;58.490;15.528;2023-03-14T12:20:20;1.03;;;0.90;;
12663;SDS011;6396;58.490;15.528;2023-03-14T12:23:01;2.90;;;0.90;;
12663;SDS011;6396;58.490;15.528;2023-03-14T12:26:08;0.93;;;0.93;;
12663;SDS011;6396;58.490;15.528;2023-03-14T13:07:30;2.37;;;1.73;;
12663;SDS011;6396;58.490;15.528;2023-03-14T13:10:28;3.23;;;1.90;;
12663;SDS011;6396;58.490;15.528;2023-03-14T13:13:16;1.97;;;1.60;;
12663;SDS011;6396;58.490;15.528;2023-03-14T13:15:53;2.10;;;1.83;;
12663;SDS011;6396;58.490;15.528;2023-03-14T13:18:29;3.97;;;2.00;;
12663;SDS011;6396;58.490;15.528;2023-03-14T13:21:07;2.47;;;1.90;;
12663;SDS011;6396;58.490;15.528;2023-03-14T13:23:42;2.50;;;1.90;;
12663;SDS011;6396;58.490;15.528;2023-03-14T13:26:34;2.00;;;1.80;;
12663;SDS011;6396;58.490;15.528;2023-03-14T13:29:19;1.93;;;1.73;;
12663;SDS011;6396;58.490;15.528;2023-03-14T13:32:15;2.37;;;1.97;;
12663;SDS011;6396;58.490;15.528;2023-03-14T13:34:55;2.23;;;2.03;;
12663;SDS011;6396;58.490;15.528;2023-03-14T13:37:38;2.00;;;1.80;;
12663;SDS011;6396;58.490;15.528;2023-03-14T13:40:18;2.30;;;2.10;;
12663;SDS011;6396;58.490;15.528;2023-03-14T13:42:49;2.87;;;2.20;;
12663;SDS011;6396;58.490;15.528;2023-03-14T13:45:28;2.20;;;1.97;;
12663;SDS011;6396;58.490;15.528;2023-03-14T13:48:00;2.73;;;2.07;;
12663;SDS011;6396;58.490;15.528;2023-03-14T13:50:29;3.20;;;2.00;;
12663;SDS011;6396;58.490;15.528;2023-03-14T13:53:11;3.60;;;2.10;;
12663;SDS011;6396;58.490;15.528;2023-03-14T13:55:54;2.50;;;2.20;;
12663;SDS011;6396;58.490;15.528;2023-03-14T13:59:03;2.70;;;2.40;;
12663;SDS011;6396;58.490;15.528;2023-03-14T14:01:49;1.90;;;1.70;;
12663;SDS011;6396;58.490;15.528;2023-03-14T14:04:21;1.63;;;1.50;;
12663;SDS011;6396;58.490;15.528;2023-03-14T14:06:57;1.70;;;1.60;;
12663;SDS011;6396;58.490;15.528;2023-03-14T14:09:37;1.80;;;1.70;;
12663;SDS011;6396;58.490;15.528;2023-03-14T14:12:12;1.47;;;1.37;;
12663;SDS011;6396;58.490;15.528;2023-03-14T14:14:43;1.83;;;1.57;;
12663;SDS011;6396;58.490;15.528;2023-03-14T14:17:16;1.70;;;1.50;;
12663;SDS011;6396;58.490;15.528;2023-03-14T14:19:51;1.77;;;1.50;;
12663;SDS011;6396;58.490;15.528;2023-03-14T14:22:32;1.50;;;1.40;;
12663;SDS011;6396;58.490;15.528;2023-03-14T14:25:11;1.70;;;1.60;;
12663;SDS011;6396;58.490;15.528;2023-03-14T14:27:42;3.63;;;1.60;;
12663;SDS011;6396;58.490;15.528;2023-03-14T14:30:25;3.00;;;1.90;;
12663;SDS011;6396;58.490;15.528;2023-03-14T14:33:09;1.73;;;1.63;;
12663;SDS011;6396;58.490;15.528;2023-03-14T14:35:40;1.57;;;1.47;;
12663;SDS011;6396;58.490;15.528;2023-03-14T14:40:51;1.30;;;1.20;;
12663;SDS011;6396;58.490;15.528;2023-03-14T14:43:22;1.27;;;1.17;;
12663;SDS011;6396;58.490;15.528;2023-03-14T14:45:53;1.20;;;1.10;;
12663;SDS011;6396;58.490;15.528;2023-03-14T14:48:23;1.87;;;1.20;;
12663;SDS011;6396;58.490;15.528;2023-03-14T14:50:56;1.00;;;1.00;;
12663;SDS011;6396;58.490;15.528;2023-03-14T14:53:29;0.93;;;0.93;;
12663;SDS011;6396;58.490;15.528;2023-03-14T14:56:06;1.17;;;0.97;;
12663;SDS011;6396;58.490;15.528;2023-03-14T14:58:40;0.90;;;0.90;;
12663;SDS011;6396;58.490;15.528;2023-03-14T15:01:11;1.33;;;1.20;;
12663;SDS011;6396;58.490;15.528;2023-03-14T15:03:55;1.30;;;1.20;;
12663;SDS011;6396;58.490;15.528;2023-03-14T15:06:22;1.33;;;1.23;;
12663;SDS011;6396;58.490;15.528;2023-03-14T15:08:54;1.50;;;1.40;;
12663;SDS011;6396;58.490;15.528;2023-03-14T15:11:26;1.30;;;1.20;;
12663;SDS011;6396;58.490;15.528;2023-03-14T15:13:55;1.40;;;1.20;;
12663;SDS011;6396;58.490;15.528;2023-03-14T15:16:23;1.40;;;1.30;;
12663;SDS011;6396;58.490;15.528;2023-03-14T15:18:55;1.40;;;1.30;;
12663;SDS011;6396;58.490;15.528;2023-03-14T15:21:30;1.50;;;1.40;;
12663;SDS011;6396;58.490;15.528;2023-03-14T15:24:15;1.60;;;1.50;;
12663;SDS011;6396;58.490;15.528;2023-03-14T15:26:44;1.50;;;1.40;;
12663;SDS011;6396;58.490;15.528;2023-03-14T15:29:11;1.43;;;1.33;;
12663;SDS011;6396;58.490;15.528;2023-03-14T15:31:40;1.67;;;1.50;;
12663;SDS011;6396;58.490;15.528;2023-03-14T15:34:09;2.37;;;1.40;;
12663;SDS011;6396;58.490;15.528;2023-03-14T15:36:36;1.53;;;1.43;;
12663;SDS011;6396;58.490;15.528;2023-03-14T15:39:06;1.57;;;1.47;;
12663;SDS011;6396;58.490;15.528;2023-03-14T15:41:46;1.70;;;1.53;;
12663;SDS011;6396;58.490;15.528;2023-03-14T15:44:36;1.40;;;1.30;;
12663;SDS011;6396;58.490;15.528;2023-03-14T15:47:04;1.50;;;1.40;;
12663;SDS011;6396;58.490;15.528;2023-03-14T15:49:32;1.30;;;1.20;;
12663;SDS011;6396;58.490;15.528;2023-03-14T15:52:00;2.00;;;1.50;;
12663;SDS011;6396;58.490;15.528;2023-03-14T15:54:35;1.87;;;1.63;;
12663;SDS011;6396;58.490;15.528;2023-03-14T15:57:04;1.70;;;1.60;;
12663;SDS011;6396;58.490;15.528;2023-03-14T15:59:32;2.37;;;1.40;;
12663;SDS011;6396;58.490;15.528;2023-03-14T16:01:59;2.60;;;1.97;;
12663;SDS011;6396;58.490;15.528;2023-03-14T16:04:25;2.60;;;1.87;;
12663;SDS011;6396;58.490;15.528;2023-03-14T16:06:52;2.23;;;1.70;;
12663;SDS011;6396;58.490;15.528;2023-03-14T16:09:19;1.80;;;1.60;;
12663;SDS011;6396;58.490;15.528;2023-03-14T16:11:46;4.10;;;1.60;;
12663;SDS011;6396;58.490;15.528;2023-03-14T16:14:15;2.07;;;1.67;;
12663;SDS011;6396;58.490;15.528;2023-03-14T16:16:41;1.40;;;1.30;;
12663;SDS011;6396;58.490;15.528;2023-03-14T16:24:40;1.95;;;1.17;;
12663;SDS011;6396;58.490;15.528;2023-03-14T16:27:08;2.00;;;1.40;;
12663;SDS011;6396;58.490;15.528;2023-03-14T16:40:07;1.37;;;1.27;;
12663;SDS011;6396;58.490;15.528;2023-03-14T16:42:34;1.67;;;1.57;;
12663;SDS011;6396;58.490;15.528;2023-03-14T16:45:01;1.47;;;1.37;;
12663;SDS011;6396;58.490;15.528;2023-03-14T16:47:28;3.30;;;1.90;;
12663;SDS011;6396;58.490;15.528;2023-03-14T16:49:55;1.40;;;1.20;;
12663;SDS011;6396;58.490;15.528;2023-03-14T16:52:22;1.67;;;1.53;;
12663;SDS011;6396;58.490;15.528;2023-03-14T16:54:50;2.13;;;1.63;;
12663;SDS011;6396;58.490;15.528;2023-03-14T16:57:20;2.30;;;1.50;;
12663;SDS011;6396;58.490;15.528;2023-03-14T16:59:46;2.70;;;1.93;;
12663;SDS011;6396;58.490;15.528;2023-03-14T17:02:14;1.83;;;1.63;;
12663;SDS011;6396;58.490;15.528;2023-03-14T17:04:41;1.60;;;1.50;;
12663;SDS011;6396;58.490;15.528;2023-03-14T17:07:08;2.23;;;1.97;;
12663;SDS011;6396;58.490;15.528;2023-03-14T17:09:35;2.73;;;1.73;;
12663;SDS011;6396;58.490;15.528;2023-03-14T17:12:03;2.80;;;2.07;;
12663;SDS011;6396;58.490;15.528;2023-03-14T17:14:31;2.13;;;1.40;;
12663;SDS011;6396;58.490;15.528;2023-03-14T17:16:58;2.50;;;2.00;;
12663;SDS011;6396;58.490;15.528;2023-03-14T17:19:26;2.20;;;1.80;;
12663;SDS011;6396;58.490;15.528;2023-03-14T17:21:53;2.43;;;2.10;;
12663;SDS011;6396;58.490;15.528;2023-03-14T17:24:20;3.10;;;1.83;;
12663;SDS011;6396;58.490;15.528;2023-03-14T17:26:47;1.93;;;1.83;;
12663;SDS011;6396;58.490;15.528;2023-03-14T17:29:14;3.43;;;1.80;;
12663;SDS011;6396;58.490;15.528;2023-03-14T17:31:42;2.63;;;1.73;;
12663;SDS011;6396;58.490;15.528;2023-03-14T17:34:09;1.40;;;1.30;;
12663;SDS011;6396;58.490;15.528;2023-03-14T17:36:36;1.70;;;1.60;;
12663;SDS011;6396;58.490;15.528;2023-03-14T17:39:04;1.90;;;1.70;;
12663;SDS011;6396;58.490;15.528;2023-03-14T17:41:33;1.90;;;1.70;;
12663;SDS011;6396;58.490;15.528;2023-03-14T17:44:00;2.40;;;1.70;;
12663;SDS011;6396;58.490;15.528;2023-03-14T17:46:27;2.47;;;1.47;;
12663;SDS011;6396;58.490;15.528;2023-03-14T17:48:58;2.67;;;1.50;;
12663;SDS011;6396;58.490;15.528;2023-03-14T17:51:25;1.60;;;1.50;;
12663;SDS011;6396;58.490;15.528;2023-03-14T17:53:53;2.70;;;1.53;;
12663;SDS011;6396;58.490;15.528;2023-03-14T17:56:21;2.53;;;1.60;;
12663;SDS011;6396;58.490;15.528;2023-03-14T17:58:56;1.57;;;1.43;;
12663;SDS011;6396;58.490;15.528;2023-03-14T18:01:40;2.33;;;1.80;;
12663;SDS011;6396;58.490;15.528;2023-03-14T18:04:17;2.10;;;1.40;;
12663;SDS011;6396;58.490;15.528;2023-03-14T18:06:57;2.17;;;1.80;;
12663;SDS011;6396;58.490;15.528;2023-03-14T18:09:24;2.20;;;1.37;;
12663;SDS011;6396;58.490;15.528;2023-03-14T18:11:53;2.27;;;1.50;;
12663;SDS011;6396;58.490;15.528;2023-03-14T18:14:21;1.93;;;1.40;;
12663;SDS011;6396;58.490;15.528;2023-03-14T18:16:55;1.40;;;1.30;;
12663;SDS011;6396;58.490;15.528;2023-03-14T18:19:23;1.17;;;1.07;;
12663;SDS011;6396;58.490;15.528;2023-03-14T18:21:50;1.30;;;1.13;;
12663;SDS011;6396;58.490;15.528;2023-03-14T18:24:18;1.07;;;0.90;;
12663;SDS011;6396;58.490;15.528;2023-03-14T18:26:45;1.67;;;1.03;;
12663;SDS011;6396;58.490;15.528;2023-03-14T18:29:12;1.17;;;1.07;;